Terminal Aerodrome Forecast
Issued by NWS Jackson, MS

Home | Current Version | Previous Version | Text Only | Print | Product List | Glossary On
Versions: 1 2 3 4 5 6 7 8 9 10 11 12 13 14
298
FTUS44 KMEG 230521
TAFTUP
TAF
KTUP 230521Z 2306/2406 35008KT 6SM -DZ OVC006
      TEMPO 2308/2312 2SM -DZ OVC004
     FM231500 36012KT P6SM OVC009
     FM231800 36012G18KT P6SM OVC015
     FM240000 01007KT P6SM OVC020=

USA.gov is the U.S. government's official web portal to all federal, state and local government web resources and services.